Time;durP1;ratioP1;P1;durP2;ratioP2;P2;SDS_P1;SDS_P2;PMS_P1;PMS_P2;Temp;Humidity;BMP_temperature;BMP_pressure;BME280_temperature;BME280_humidity;BME280_pressure;Samples;Min_cycle;Max_cycle;Signal;HPM_P1;HPM_P2
2023/12/05 00:00:40;;;;;;;22.65;9.98;;;;;;;-144.57;100.00;62443.72;5012061;28;20129;-63
2023/12/05 00:03:05;;;;;;;21.45;9.73;;;;;;;-144.57;100.00;62443.72;5011529;28;20504;-61
2023/12/05 00:05:31;;;;;;;23.17;9.40;;;;;;;-144.57;100.00;62443.72;5014104;28;20396;-63
2023/12/05 00:07:56;;;;;;;23.00;10.60;;;;;;;-144.57;100.00;62443.72;5015605;28;20046;-61
2023/12/05 00:10:22;;;;;;;24.33;10.35;;;;;;;-144.57;100.00;62443.72;5014919;28;20038;-64
2023/12/05 00:12:48;;;;;;;22.52;9.52;;;;;;;-144.57;100.00;62443.72;5013903;28;20054;-62
2023/12/05 00:15:13;;;;;;;21.02;9.25;;;;;;;-144.57;100.00;62443.72;5015841;28;20046;-62
2023/12/05 00:17:39;;;;;;;19.42;9.15;;;;;;;-144.57;100.00;62443.72;5015215;28;20056;-61
2023/12/05 00:20:05;;;;;;;18.60;9.07;;;;;;;-144.57;100.00;62443.72;5015620;28;20060;-63
2023/12/05 00:22:31;;;;;;;25.70;10.52;;;;;;;-144.57;100.00;62443.72;5013391;28;20042;-62
2023/12/05 00:24:57;;;;;;;22.10;9.63;;;;;;;-144.57;100.00;62443.72;5013519;28;20063;-61
2023/12/05 00:27:22;;;;;;;16.85;8.82;;;;;;;-144.57;100.00;62443.72;5013707;28;20046;-60
2023/12/05 00:29:48;;;;;;;20.27;10.02;;;;;;;-144.57;100.00;62443.72;5014462;28;20030;-62
2023/12/05 00:32:14;;;;;;;22.15;9.32;;;;;;;-144.57;100.00;62443.72;5012779;28;20046;-61
2023/12/05 00:34:40;;;;;;;19.55;9.15;;;;;;;-144.57;100.00;62443.72;5011574;28;20046;-63
2023/12/05 00:37:05;;;;;;;25.02;10.15;;;;;;;-144.57;100.00;62443.72;5012694;28;20439;-63
2023/12/05 00:39:31;;;;;;;25.17;9.70;;;;;;;-144.57;100.00;62443.72;5012652;28;20128;-62
2023/12/05 00:41:57;;;;;;;23.60;9.32;;;;;;;-144.57;100.00;62443.72;5012715;28;20030;-61
2023/12/05 00:44:23;;;;;;;21.88;8.63;;;;;;;-144.57;100.00;62443.72;5012804;28;20096;-62
2023/12/05 00:46:49;;;;;;;21.40;8.85;;;;;;;-144.57;100.00;62443.72;5027472;28;20042;-61
2023/12/05 00:49:14;;;;;;;20.50;9.63;;;;;;;-144.57;100.00;62443.72;5012794;28;20534;-61
2023/12/05 00:51:40;;;;;;;19.85;9.77;;;;;;;-144.57;100.00;62443.72;5010993;28;20046;-62
2023/12/05 00:54:05;;;;;;;19.10;9.40;;;;;;;-144.57;100.00;62443.72;5010791;28;20467;-62
2023/12/05 00:56:32;;;;;;;15.70;8.10;;;;;;;-144.57;100.00;62443.72;5027092;28;20422;-63
2023/12/05 00:58:58;;;;;;;19.25;8.98;;;;;;;-144.57;100.00;62443.72;5011433;28;20042;-62
2023/12/05 01:01:23;;;;;;;17.33;8.65;;;;;;;-144.57;100.00;62443.72;5000275;28;20037;-61
2023/12/05 01:03:51;;;;;;;20.65;8.45;;;;;;;-144.57;100.00;62443.72;5011244;28;20062;-61
2023/12/05 01:06:18;;;;;;;19.77;8.45;;;;;;;-144.57;100.00;62443.72;5027327;28;20053;-61
2023/12/05 01:08:43;;;;;;;17.80;8.98;;;;;;;-144.57;100.00;62443.72;5012900;28;20073;-62
2023/12/05 01:11:12;;;;;;;21.35;9.70;;;;;;;-144.57;100.00;62443.72;5012637;28;20618;-62
2023/12/05 01:13:37;;;;;;;18.42;8.90;;;;;;;-144.57;100.00;62443.72;5012528;28;20405;-62
2023/12/05 01:16:04;;;;;;;17.35;7.72;;;;;;;-144.57;100.00;62443.72;5012094;28;20056;-61
2023/12/05 01:18:29;;;;;;;18.13;9.20;;;;;;;-144.57;100.00;62443.72;5012046;28;20038;-62
2023/12/05 01:20:55;;;;;;;16.65;7.32;;;;;;;-144.57;100.00;62443.72;5012348;28;20046;-62
2023/12/05 01:23:21;;;;;;;23.02;10.05;;;;;;;-144.57;100.00;62443.72;5012321;28;20068;-61
2023/12/05 01:25:46;;;;;;;17.85;8.85;;;;;;;-144.57;100.00;62443.72;5011847;28;20077;-62
2023/12/05 01:28:12;;;;;;;20.70;9.75;;;;;;;-144.57;100.00;62443.72;5012343;28;20046;-61
2023/12/05 01:30:38;;;;;;;16.13;8.07;;;;;;;-144.57;100.00;62443.72;5011924;28;20389;-63
2023/12/05 01:33:04;;;;;;;19.02;8.35;;;;;;;-144.57;100.00;62443.72;5012236;28;20085;-61
2023/12/05 01:35:29;;;;;;;18.13;8.95;;;;;;;-144.57;100.00;62443.72;4994432;28;20396;-62
2023/12/05 01:37:55;;;;;;;23.70;9.52;;;;;;;-144.57;100.00;62443.72;5012126;28;20046;-62
2023/12/05 01:40:21;;;;;;;21.35;8.75;;;;;;;-144.57;100.00;62443.72;5011885;28;20048;-63
2023/12/05 01:42:47;;;;;;;18.85;8.93;;;;;;;-144.57;100.00;62443.72;5012122;28;20495;-61
2023/12/05 01:45:12;;;;;;;19.80;9.02;;;;;;;-144.57;100.00;62443.72;5010785;28;20126;-62
2023/12/05 01:47:39;;;;;;;17.90;8.88;;;;;;;-144.57;100.00;62443.72;5011771;28;20045;-61
2023/12/05 01:50:11;;;;;;;18.55;8.60;;;;;;;-144.57;100.00;62443.72;5011894;28;20112;-61
2023/12/05 01:52:41;;;;;;;19.88;9.07;;;;;;;-144.57;100.00;62443.72;5010445;28;20050;-62
2023/12/05 01:55:08;;;;;;;19.30;10.05;;;;;;;-144.57;100.00;62443.72;5010325;28;20048;-61
2023/12/05 01:57:34;;;;;;;21.67;10.23;;;;;;;-144.57;100.00;62443.72;5010781;28;20045;-60
2023/12/05 02:00:00;;;;;;;23.15;10.30;;;;;;;-144.57;100.00;62443.72;5010030;28;20137;-63
2023/12/05 02:02:26;;;;;;;22.38;9.48;;;;;;;-144.57;100.00;62443.72;5009554;28;20058;-62
2023/12/05 02:04:52;;;;;;;19.92;8.13;;;;;;;-144.57;100.00;62443.72;5011002;28;20034;-63
2023/12/05 02:07:18;;;;;;;20.83;8.75;;;;;;;-144.57;100.00;62443.72;5010769;28;20443;-61
2023/12/05 02:09:44;;;;;;;18.25;9.05;;;;;;;-144.57;100.00;62443.72;5011078;28;20038;-60
2023/12/05 02:12:10;;;;;;;20.05;9.52;;;;;;;-144.57;100.00;62443.72;5026310;28;20085;-60
2023/12/05 02:14:36;;;;;;;17.95;8.98;;;;;;;-144.57;100.00;62443.72;5009614;28;20076;-62
2023/12/05 02:17:19;;;;;;;16.63;8.75;;;;;;;-144.57;100.00;62443.72;5026090;28;20598;-63
2023/12/05 02:20:20;;;;;;;19.48;9.27;;;;;;;-144.57;100.00;62443.72;5009308;28;20045;-62
2023/12/05 02:22:52;;;;;;;;;;;;;;;-144.57;100.00;62443.72;5010334;28;20061;-62
2023/12/05 02:25:36;;;;;;;16.58;7.60;;;;;;;-144.57;100.00;62443.72;5026455;28;19925;-60
2023/12/05 02:28:03;;;;;;;20.17;9.20;;;;;;;-144.57;100.00;62443.72;5026823;28;20073;-61
2023/12/05 02:30:28;;;;;;;19.35;8.82;;;;;;;-144.57;100.00;62443.72;5011648;28;20159;-61
2023/12/05 02:32:54;;;;;;;24.77;9.50;;;;;;;-144.57;100.00;62443.72;5010278;28;20479;-61
2023/12/05 02:35:20;;;;;;;18.63;8.82;;;;;;;-144.57;100.00;62443.72;5011077;28;20124;-63
2023/12/05 02:38:13;;;;;;;18.58;8.77;;;;;;;-144.57;100.00;62443.72;5026810;28;20057;-62
2023/12/05 02:40:46;;;;;;;21.48;8.75;;;;;;;-144.57;100.00;62443.72;5011505;28;20081;-62
2023/12/05 02:43:16;;;;;;;22.27;10.15;;;;;;;-144.57;100.00;62443.72;4992140;28;20153;-61
2023/12/05 02:45:43;;;;;;;22.85;10.07;;;;;;;-144.57;100.00;62443.72;5006858;28;20077;-61
2023/12/05 02:48:10;;;;;;;20.65;8.98;;;;;;;-144.57;100.00;62443.72;5006897;28;20042;-62
2023/12/05 02:50:36;;;;;;;18.25;8.25;;;;;;;-144.57;100.00;62443.72;5006757;28;20057;-60
2023/12/05 02:53:01;;;;;;;18.05;8.82;;;;;;;-144.57;100.00;62443.72;4991939;28;20046;-62
2023/12/05 02:55:27;;;;;;;19.85;8.32;;;;;;;-144.57;100.00;62443.72;4991572;28;20052;-63
2023/12/05 02:57:53;;;;;;;18.67;9.65;;;;;;;-144.57;100.00;62443.72;4990504;28;20046;-63
2023/12/05 03:00:19;;;;;;;22.33;9.27;;;;;;;-144.57;100.00;62443.72;4991823;28;20516;-63
2023/12/05 03:02:45;;;;;;;17.42;8.35;;;;;;;-144.57;100.00;62443.72;5006719;28;20070;-62
2023/12/05 03:05:10;;;;;;;20.63;9.77;;;;;;;-144.57;100.00;62443.72;4991666;28;20555;-63
2023/12/05 03:07:36;;;;;;;17.10;8.40;;;;;;;-144.57;100.00;62443.72;4991519;28;20433;-61
2023/12/05 03:10:04;;;;;;;17.67;8.55;;;;;;;-144.57;100.00;62443.72;5006424;28;20058;-62
2023/12/05 03:12:33;;;;;;;20.73;9.45;;;;;;;-144.57;100.00;62443.72;5006592;28;20038;-63
2023/12/05 03:15:00;;;;;;;22.55;9.20;;;;;;;-144.57;100.00;62443.72;4991759;28;20047;-62
2023/12/05 03:17:26;;;;;;;18.65;9.20;;;;;;;-144.57;100.00;62443.72;4994114;28;20365;-62
2023/12/05 03:19:51;;;;;;;21.30;9.60;;;;;;;-144.57;100.00;62443.72;5010110;28;20046;-63
2023/12/05 03:22:17;;;;;;;16.40;7.63;;;;;;;-144.57;100.00;62443.72;4995013;28;20061;-62
2023/12/05 03:24:43;;;;;;;20.80;9.38;;;;;;;-144.57;100.00;62443.72;4993601;28;20064;-61
2023/12/05 03:27:08;;;;;;;21.00;9.32;;;;;;;-144.57;100.00;62443.72;5014275;28;20088;-63
2023/12/05 03:29:34;;;;;;;19.15;8.45;;;;;;;-144.57;100.00;62443.72;5014444;28;20136;-63
2023/12/05 03:32:00;;;;;;;21.00;9.85;;;;;;;-144.57;100.00;62443.72;5029603;28;20046;-63
2023/12/05 03:34:25;;;;;;;19.30;8.95;;;;;;;-144.57;100.00;62443.72;5014384;28;20053;-62
2023/12/05 03:36:51;;;;;;;17.77;8.20;;;;;;;-144.57;100.00;62443.72;5014353;28;20145;-62
2023/12/05 03:39:16;;;;;;;19.45;8.90;;;;;;;-144.57;100.00;62443.72;5014805;28;20056;-63
2023/12/05 03:41:47;;;;;;;17.42;8.65;;;;;;;-144.57;100.00;62443.72;5013210;28;20044;-62
2023/12/05 03:44:13;;;;;;;18.15;9.27;;;;;;;-144.57;100.00;62443.72;5014375;28;20119;-62
2023/12/05 03:46:38;;;;;;;17.88;8.70;;;;;;;-144.57;100.00;62443.72;5014113;28;20042;-63
2023/12/05 03:49:04;;;;;;;17.25;8.45;;;;;;;-144.57;100.00;62443.72;5014682;28;20249;-62
2023/12/05 03:51:30;;;;;;;21.08;8.75;;;;;;;-144.57;100.00;62443.72;5014153;28;20447;-63
2023/12/05 03:53:56;;;;;;;24.50;10.50;;;;;;;-144.57;100.00;62443.72;5012964;28;20389;-62
2023/12/05 03:56:21;;;;;;;20.50;9.20;;;;;;;-144.57;100.00;62443.72;5012740;28;20057;-62
2023/12/05 03:58:47;;;;;;;21.70;9.40;;;;;;;-144.57;100.00;62443.72;5013009;28;20042;-61
2023/12/05 04:01:13;;;;;;;22.80;9.27;;;;;;;-144.57;100.00;62443.72;5013824;28;20111;-63
2023/12/05 04:03:39;;;;;;;20.27;9.05;;;;;;;-144.57;100.00;62443.72;5014009;28;20048;-62
2023/12/05 04:06:05;;;;;;;19.15;8.93;;;;;;;-144.57;100.00;62443.72;5014131;28;20046;-64
2023/12/05 04:08:31;;;;;;;20.40;8.95;;;;;;;-144.57;100.00;62443.72;5012385;28;20042;-63
2023/12/05 04:10:57;;;;;;;20.77;8.63;;;;;;;-144.57;100.00;62443.72;5012330;28;20073;-64
2023/12/05 04:13:22;;;;;;;19.55;8.98;;;;;;;-144.57;100.00;62443.72;5013849;28;20038;-62
2023/12/05 04:15:48;;;;;;;17.58;8.50;;;;;;;-144.57;100.00;62443.72;4996120;28;20065;-64
2023/12/05 04:18:14;;;;;;;19.67;8.65;;;;;;;-144.57;100.00;62443.72;5012241;28;20034;-62
2023/12/05 04:20:39;;;;;;;19.45;9.98;;;;;;;-144.57;100.00;62443.72;5012909;28;20563;-63
2023/12/05 04:23:05;;;;;;;18.40;8.63;;;;;;;-144.57;100.00;62443.72;5013934;28;20157;-62
2023/12/05 04:25:31;;;;;;;21.63;10.32;;;;;;;-144.57;100.00;62443.72;5013302;28;20534;-62
2023/12/05 04:27:56;;;;;;;23.55;9.73;;;;;;;-144.57;100.00;62443.72;4994438;28;20040;-60
2023/12/05 04:30:22;;;;;;;21.83;9.57;;;;;;;-144.57;100.00;62443.72;5011255;28;20049;-64
2023/12/05 04:32:48;;;;;;;17.70;8.10;;;;;;;-144.57;100.00;62443.72;5011542;28;20037;-63
2023/12/05 04:35:15;;;;;;;20.17;8.93;;;;;;;-144.57;100.00;62443.72;5013143;28;20103;-62
2023/12/05 04:37:40;;;;;;;19.08;8.90;;;;;;;-144.57;100.00;62443.72;5012431;28;20053;-62
2023/12/05 04:40:08;;;;;;;19.80;8.90;;;;;;;-144.57;100.00;62443.72;5012965;28;20210;-62
2023/12/05 04:42:34;;;;;;;22.95;8.48;;;;;;;-144.57;100.00;62443.72;5013250;28;20049;-62
2023/12/05 04:45:00;;;;;;;19.75;9.90;;;;;;;-144.57;100.00;62443.72;5013113;28;20061;-61
2023/12/05 04:47:25;;;;;;;20.35;9.25;;;;;;;-144.57;100.00;62443.72;5013261;28;20061;-63
2023/12/05 04:49:51;;;;;;;19.73;9.25;;;;;;;-144.57;100.00;62443.72;5028424;28;20038;-63
2023/12/05 04:52:17;;;;;;;21.33;8.73;;;;;;;-144.57;100.00;62443.72;5011791;28;20049;-62
2023/12/05 04:54:42;;;;;;;17.27;8.68;;;;;;;-144.57;100.00;62443.72;5011816;28;20045;-64
2023/12/05 04:57:08;;;;;;;21.10;8.88;;;;;;;-144.57;100.00;62443.72;5011506;28;20141;-63
2023/12/05 04:59:34;;;;;;;23.63;9.50;;;;;;;-144.57;100.00;62443.72;5013763;28;20046;-63
2023/12/05 05:02:00;;;;;;;22.95;10.70;;;;;;;-144.57;100.00;62443.72;5012674;28;20086;-60
2023/12/05 05:04:25;;;;;;;19.75;9.43;;;;;;;-144.57;100.00;62443.72;5012677;28;20053;-63
2023/12/05 05:06:51;;;;;;;19.40;10.10;;;;;;;-144.57;100.00;62443.72;5012659;28;20504;-62
2023/12/05 05:09:17;;;;;;;17.40;8.13;;;;;;;-144.57;100.00;62443.72;5012643;28;20045;-62
2023/12/05 05:11:42;;;;;;;21.20;9.13;;;;;;;-144.57;100.00;62443.72;5011466;28;20037;-63
2023/12/05 05:14:08;;;;;;;22.33;9.02;;;;;;;-144.57;100.00;62443.72;5025581;28;20050;-63
2023/12/05 05:16:34;;;;;;;21.77;8.98;;;;;;;-144.57;100.00;62443.72;5010598;28;20064;-63
2023/12/05 05:19:00;;;;;;;17.00;8.70;;;;;;;-144.57;100.00;62443.72;5009272;28;20516;-64
2023/12/05 05:21:25;;;;;;;24.10;9.63;;;;;;;-144.57;100.00;62443.72;5008251;28;20053;-63
2023/12/05 05:23:51;;;;;;;20.60;10.07;;;;;;;-144.57;100.00;62443.72;5008156;28;20049;-64
2023/12/05 05:26:17;;;;;;;19.48;8.82;;;;;;;-144.57;100.00;62443.72;5008815;28;20038;-61
2023/12/05 05:28:43;;;;;;;23.38;9.05;;;;;;;-144.57;100.00;62443.72;4994398;28;20516;-63
2023/12/05 05:31:09;;;;;;;16.83;8.73;;;;;;;-144.57;100.00;62443.72;5011357;28;20129;-64
2023/12/05 05:33:35;;;;;;;23.85;9.15;;;;;;;-144.57;100.00;62443.72;5011823;28;20038;-60
2023/12/05 05:36:00;;;;;;;23.40;9.40;;;;;;;-144.57;100.00;62443.72;5011681;28;20042;-62
2023/12/05 05:38:26;;;;;;;18.88;8.32;;;;;;;-144.57;100.00;62443.72;5010773;28;20080;-62
2023/12/05 05:41:02;;;;;;;18.05;7.75;;;;;;;-144.57;100.00;62443.72;5025931;28;20097;-63
2023/12/05 05:43:28;;;;;;;20.42;8.85;;;;;;;-144.57;100.00;62443.72;5009679;28;20495;-61
2023/12/05 05:45:54;;;;;;;16.38;8.60;;;;;;;-144.57;100.00;62443.72;5010189;28;20084;-61
2023/12/05 05:48:19;;;;;;;20.10;9.32;;;;;;;-144.57;100.00;62443.72;5011850;28;20034;-62
2023/12/05 05:50:45;;;;;;;17.80;8.82;;;;;;;-144.57;100.00;62443.72;5010342;28;20084;-61
2023/12/05 05:53:10;;;;;;;21.38;9.82;;;;;;;-144.57;100.00;62443.72;5011545;28;20512;-60
2023/12/05 05:55:36;;;;;;;21.67;9.48;;;;;;;-144.57;100.00;62443.72;5010107;28;20057;-61
2023/12/05 05:58:02;;;;;;;23.95;8.98;;;;;;;-144.57;100.00;62443.72;5010366;28;20076;-64
2023/12/05 06:00:27;;;;;;;19.33;9.43;;;;;;;-144.57;100.00;62443.72;5009706;28;20069;-64
2023/12/05 06:02:53;;;;;;;21.85;9.35;;;;;;;-144.57;100.00;62443.72;5010887;28;20183;-65
2023/12/05 06:05:19;;;;;;;21.98;9.43;;;;;;;-144.57;100.00;62443.72;5009416;28;20133;-62
2023/12/05 06:07:45;;;;;;;21.80;9.32;;;;;;;-144.57;100.00;62443.72;5011025;28;20139;-63
2023/12/05 06:10:10;;;;;;;22.83;9.77;;;;;;;-144.57;100.00;62443.72;5011422;28;20049;-63
2023/12/05 06:12:36;;;;;;;22.63;9.98;;;;;;;-144.57;100.00;62443.72;5009913;28;20103;-63
2023/12/05 06:15:02;;;;;;;21.00;9.38;;;;;;;-144.57;100.00;62443.72;5009269;28;20052;-64
2023/12/05 06:17:28;;;;;;;23.20;9.27;;;;;;;-144.57;100.00;62443.72;5011498;28;20065;-62
2023/12/05 06:19:54;;;;;;;22.67;9.27;;;;;;;-144.57;100.00;62443.72;5011050;28;20077;-63
2023/12/05 06:22:19;;;;;;;20.92;8.98;;;;;;;-144.57;100.00;62443.72;5010795;28;20044;-62
2023/12/05 06:24:45;;;;;;;22.52;9.65;;;;;;;-144.57;100.00;62443.72;5010917;28;20125;-64
2023/12/05 06:27:11;;;;;;;22.27;10.05;;;;;;;-144.57;100.00;62443.72;5011662;28;20546;-63
2023/12/05 06:29:37;;;;;;;21.63;9.65;;;;;;;-144.57;100.00;62443.72;5026100;28;20177;-64
2023/12/05 06:32:03;;;;;;;16.63;7.82;;;;;;;-144.57;100.00;62443.72;5010171;28;20041;-62
2023/12/05 06:34:28;;;;;;;17.83;8.45;;;;;;;-144.57;100.00;62443.72;5010978;28;20048;-60
2023/12/05 06:36:54;;;;;;;21.52;8.68;;;;;;;-144.57;100.00;62443.72;5011293;28;20050;-61
2023/12/05 06:39:20;;;;;;;22.13;9.30;;;;;;;-144.57;100.00;62443.72;5010992;28;20045;-62
2023/12/05 06:41:46;;;;;;;17.30;9.48;;;;;;;-144.57;100.00;62443.72;4993555;28;20045;-62
2023/12/05 06:44:12;;;;;;;22.02;9.98;;;;;;;-144.57;100.00;62443.72;5011108;28;20042;-62
2023/12/05 06:46:37;;;;;;;17.88;8.63;;;;;;;-144.57;100.00;62443.72;5009381;28;20038;-64
2023/12/05 06:49:03;;;;;;;20.25;9.02;;;;;;;-144.57;100.00;62443.72;5011356;28;20042;-63
2023/12/05 06:51:29;;;;;;;23.20;10.40;;;;;;;-144.57;100.00;62443.72;5009662;28;20558;-64
2023/12/05 06:53:54;;;;;;;22.95;9.70;;;;;;;-144.57;100.00;62443.72;5014753;28;20041;-61
2023/12/05 06:56:20;;;;;;;22.77;9.45;;;;;;;-144.57;100.00;62443.72;5013749;28;20057;-62
2023/12/05 06:58:46;;;;;;;21.85;10.48;;;;;;;-144.57;100.00;62443.72;5015212;28;20550;-63
2023/12/05 07:01:12;;;;;;;23.42;9.93;;;;;;;-144.57;100.00;62443.72;5013824;28;20050;-62
2023/12/05 07:03:37;;;;;;;18.90;9.25;;;;;;;-144.57;100.00;62443.72;5013672;28;20045;-62
2023/12/05 07:06:05;;;;;;;23.15;9.85;;;;;;;-144.57;100.00;62443.72;5013125;28;20084;-64
2023/12/05 07:08:31;;;;;;;20.05;10.57;;;;;;;-144.57;100.00;62443.72;5015154;28;20128;-62
2023/12/05 07:10:56;;;;;;;24.13;10.57;;;;;;;-144.57;100.00;62443.72;4995823;28;20052;-63
2023/12/05 07:13:22;;;;;;;25.25;10.77;;;;;;;-144.57;100.00;62443.72;5012468;28;20049;-62
2023/12/05 07:15:48;;;;;;;22.20;10.15;;;;;;;-144.57;100.00;62443.72;4979562;28;20053;-63
2023/12/05 07:18:14;;;;;;;26.85;11.60;;;;;;;-144.57;100.00;62443.72;5014343;28;20073;-61
2023/12/05 07:20:40;;;;;;;20.23;10.73;;;;;;;-144.57;100.00;62443.72;5014478;28;20132;-61
2023/12/05 07:23:06;;;;;;;27.15;11.27;;;;;;;-144.57;100.00;62443.72;4996712;28;20144;-60
2023/12/05 07:25:32;;;;;;;27.08;12.02;;;;;;;-144.57;100.00;62443.72;4980394;28;20141;-61
2023/12/05 07:27:57;;;;;;;23.88;10.93;;;;;;;-144.57;100.00;62443.72;5013343;28;20128;-61
2023/12/05 07:30:23;;;;;;;24.42;11.13;;;;;;;-144.57;100.00;62443.72;5014471;28;20381;-64
2023/12/05 07:32:49;;;;;;;23.23;11.55;;;;;;;-144.57;100.00;62443.72;5014691;28;20042;-61
2023/12/05 07:35:15;;;;;;;28.02;11.57;;;;;;;-144.57;100.00;62443.72;5012937;28;20046;-60
2023/12/05 07:37:40;;;;;;;24.17;11.68;;;;;;;-144.57;100.00;62443.72;5014405;28;20077;-62
2023/12/05 07:40:07;;;;;;;28.20;11.43;;;;;;;-144.57;100.00;62443.72;4980344;28;20053;-62
2023/12/05 07:42:32;;;;;;;25.30;12.13;;;;;;;-144.57;100.00;62443.72;5014401;28;20499;-64
2023/12/05 07:44:58;;;;;;;24.83;11.73;;;;;;;-144.57;100.00;62443.72;5012635;28;20065;-59
2023/12/05 07:47:24;;;;;;;24.83;11.68;;;;;;;-144.57;100.00;62443.72;5012874;28;20472;-64
2023/12/05 07:49:50;;;;;;;29.60;11.93;;;;;;;-144.57;100.00;62443.72;5013905;28;20042;-64
2023/12/05 07:52:16;;;;;;;23.98;11.15;;;;;;;-144.57;100.00;62443.72;5014253;28;20073;-64
2023/12/05 07:54:41;;;;;;;26.55;13.43;;;;;;;-144.57;100.00;62443.72;5014007;28;20048;-65
2023/12/05 07:57:07;;;;;;;27.02;12.05;;;;;;;-144.57;100.00;62443.72;5014211;28;20412;-63
2023/12/05 07:59:33;;;;;;;24.83;12.38;;;;;;;-144.57;100.00;62443.72;5013129;28;20037;-62
2023/12/05 08:01:59;;;;;;;25.00;11.43;;;;;;;-144.57;100.00;62443.72;5013920;28;20048;-64
2023/12/05 08:04:24;;;;;;;26.25;12.30;;;;;;;-144.57;100.00;62443.72;5012676;28;20504;-64
2023/12/05 08:06:50;;;;;;;26.67;12.85;;;;;;;-144.57;100.00;62443.72;5013767;28;20046;-63
2023/12/05 08:09:16;;;;;;;26.77;12.68;;;;;;;-144.57;100.00;62443.72;5013164;28;20053;-62
2023/12/05 08:11:42;;;;;;;25.88;12.25;;;;;;;-144.57;100.00;62443.72;5013547;28;20046;-64
2023/12/05 08:14:08;;;;;;;22.38;11.18;;;;;;;-144.57;100.00;62443.72;5011727;28;20042;-62
2023/12/05 08:16:34;;;;;;;27.02;11.73;;;;;;;-144.57;100.00;62443.72;5011634;28;20068;-65
2023/12/05 08:18:59;;;;;;;21.92;10.10;;;;;;;-144.57;100.00;62443.72;5010497;28;20054;-62
2023/12/05 08:21:25;;;;;;;20.23;10.45;;;;;;;-144.57;100.00;62443.72;5011106;28;20550;-63
2023/12/05 08:23:52;;;;;;;18.73;8.70;;;;;;;-144.57;100.00;62443.72;5026093;28;20041;-62
2023/12/05 08:26:17;;;;;;;20.70;10.48;;;;;;;-144.57;100.00;62443.72;5011009;28;20511;-62
2023/12/05 08:28:43;;;;;;;24.20;10.98;;;;;;;-144.57;100.00;62443.72;5010505;28;20034;-63
2023/12/05 08:31:09;;;;;;;20.73;9.50;;;;;;;-144.57;100.00;62443.72;5012309;28;20128;-62
2023/12/05 08:33:34;;;;;;;19.00;9.32;;;;;;;-144.57;100.00;62443.72;5013233;28;20041;-62
2023/12/05 08:36:01;;;;;;;16.45;8.85;;;;;;;-144.57;100.00;62443.72;5012893;28;20053;-63
2023/12/05 08:38:27;;;;;;;18.30;9.45;;;;;;;-144.57;100.00;62443.72;5012808;28;20037;-64
2023/12/05 08:40:52;;;;;;;17.17;9.70;;;;;;;-144.57;100.00;62443.72;5012043;28;20523;-63
2023/12/05 08:43:18;;;;;;;21.02;10.40;;;;;;;-144.57;100.00;62443.72;5013028;28;20052;-62
2023/12/05 08:45:44;;;;;;;22.85;11.30;;;;;;;-144.57;100.00;62443.72;5028419;28;20049;-63
2023/12/05 08:48:10;;;;;;;26.40;11.63;;;;;;;-144.57;100.00;62443.72;5012705;28;20038;-62
2023/12/05 08:50:36;;;;;;;24.77;10.43;;;;;;;-144.57;100.00;62443.72;5012811;28;20073;-64
2023/12/05 08:53:02;;;;;;;20.60;11.30;;;;;;;-144.57;100.00;62443.72;5011403;28;20595;-63
2023/12/05 08:55:28;;;;;;;24.52;10.75;;;;;;;-144.57;100.00;62443.72;5011377;28;20061;-63
2023/12/05 08:57:55;;;;;;;24.42;11.20;;;;;;;-144.57;100.00;62443.72;4994806;28;20522;-63
2023/12/05 09:00:21;;;;;;;23.00;10.40;;;;;;;-144.57;100.00;62443.72;5012142;28;20061;-64
2023/12/05 09:02:47;;;;;;;22.13;10.18;;;;;;;-144.57;100.00;62443.72;5010189;28;20029;-64
2023/12/05 09:05:12;;;;;;;21.33;10.05;;;;;;;-144.57;100.00;62443.72;5012506;28;20400;-66
2023/12/05 09:07:39;;;;;;;22.10;11.38;;;;;;;-144.57;100.00;62443.72;5014445;28;20483;-64
2023/12/05 09:10:05;;;;;;;22.95;11.00;;;;;;;-144.57;100.00;62443.72;5011143;28;20048;-64
2023/12/05 09:12:32;;;;;;;25.33;11.60;;;;;;;-144.57;100.00;62443.72;5012306;28;20052;-63
2023/12/05 09:14:58;;;;;;;21.95;10.50;;;;;;;-144.57;100.00;62443.72;5012369;28;20053;-65
2023/12/05 09:17:24;;;;;;;23.60;11.05;;;;;;;-144.57;100.00;62443.72;5011158;28;20041;-64
2023/12/05 09:19:50;;;;;;;21.23;11.15;;;;;;;-144.57;100.00;62443.72;5012064;28;20080;-63
2023/12/05 09:22:17;;;;;;;27.80;11.35;;;;;;;-144.57;100.00;62443.72;5012192;28;20046;-64
2023/12/05 09:24:43;;;;;;;24.95;11.30;;;;;;;-144.57;100.00;62443.72;5011775;28;20062;-64
2023/12/05 09:27:08;;;;;;;25.80;10.88;;;;;;;-144.57;100.00;62443.72;5012124;28;20048;-62
2023/12/05 09:29:34;;;;;;;20.65;10.15;;;;;;;-144.57;100.00;62443.72;5011975;28;20324;-63
2023/12/05 09:32:00;;;;;;;21.23;10.57;;;;;;;-144.57;100.00;62443.72;5012101;28;20061;-63
2023/12/05 09:34:25;;;;;;;22.60;10.90;;;;;;;-144.57;100.00;62443.72;5011960;28;20049;-63
2023/12/05 09:36:51;;;;;;;23.52;11.52;;;;;;;-144.57;100.00;62443.72;5010709;28;20054;-62
2023/12/05 09:39:17;;;;;;;22.15;9.85;;;;;;;-144.57;100.00;62443.72;5011751;28;20061;-62
2023/12/05 09:41:48;;;;;;;22.38;9.90;;;;;;;-144.57;100.00;62443.72;5011020;28;20042;-63
2023/12/05 09:44:14;;;;;;;16.45;8.75;;;;;;;-144.57;100.00;62443.72;5010532;28;20053;-64
2023/12/05 09:46:41;;;;;;;16.77;9.23;;;;;;;-144.57;100.00;62443.72;5010609;28;20042;-64
2023/12/05 09:49:08;;;;;;;17.33;8.93;;;;;;;-144.57;100.00;62443.72;5026386;28;20048;-63
2023/12/05 09:51:34;;;;;;;19.90;10.27;;;;;;;-144.57;100.00;62443.72;5011710;28;20461;-64
2023/12/05 09:54:00;;;;;;;21.45;9.88;;;;;;;-144.57;100.00;62443.72;5027025;28;20053;-63
2023/12/05 09:56:27;;;;;;;17.48;8.85;;;;;;;-144.57;100.00;62443.72;5009402;28;20528;-64
2023/12/05 09:58:54;;;;;;;17.33;9.00;;;;;;;-144.57;100.00;62443.72;5012142;28;20045;-62
2023/12/05 10:01:21;;;;;;;22.67;9.85;;;;;;;-144.57;100.00;62443.72;5011647;28;20058;-63
2023/12/05 10:03:57;;;;;;;18.30;8.82;;;;;;;-144.57;100.00;62443.72;5011812;28;20041;-64
2023/12/05 10:06:25;;;;;;;22.23;10.05;;;;;;;-144.57;100.00;62443.72;5026912;28;20041;-63
2023/12/05 10:08:52;;;;;;;20.45;9.98;;;;;;;-144.57;100.00;62443.72;5012355;28;20144;-62
2023/12/05 10:11:20;;;;;;;23.88;10.15;;;;;;;-144.57;100.00;62443.72;5009936;28;20418;-63
2023/12/05 10:13:46;;;;;;;23.92;10.68;;;;;;;-144.57;100.00;62443.72;5009801;28;20140;-63
2023/12/05 10:16:13;;;;;;;22.90;10.35;;;;;;;-144.57;100.00;62443.72;5008815;28;20129;-63
2023/12/05 10:18:39;;;;;;;20.48;9.73;;;;;;;-144.57;100.00;62443.72;5025246;28;20586;-62
2023/12/05 10:21:05;;;;;;;18.77;10.07;;;;;;;-144.57;100.00;62443.72;5010349;28;20124;-63
2023/12/05 10:23:31;;;;;;;23.50;10.75;;;;;;;-144.57;100.00;62443.72;5026543;28;20133;-63
2023/12/05 10:25:56;;;;;;;19.98;9.38;;;;;;;-144.57;100.00;62443.72;5009890;28;20062;-64
2023/12/05 10:28:23;;;;;;;18.70;9.55;;;;;;;-144.57;100.00;62443.72;5009233;28;20108;-63
2023/12/05 10:30:48;;;;;;;17.02;8.98;;;;;;;-144.57;100.00;62443.72;5009308;28;20096;-63
2023/12/05 10:33:16;;;;;;;21.23;9.07;;;;;;;-144.57;100.00;62443.72;5011195;28;20500;-63
2023/12/05 10:35:43;;;;;;;17.48;8.73;;;;;;;-144.57;100.00;62443.72;5009654;28;20069;-62
2023/12/05 10:38:14;;;;;;;14.80;8.95;;;;;;;-144.57;100.00;62443.72;4989676;28;20448;-62
2023/12/05 10:40:57;;;;;;;18.70;9.65;;;;;;;-144.57;100.00;62443.72;5008228;28;20042;-64
2023/12/05 10:43:25;;;;;;;18.80;8.52;;;;;;;-144.57;100.00;62443.72;5024584;28;20042;-63
2023/12/05 10:45:52;;;;;;;15.20;8.57;;;;;;;-144.57;100.00;62443.72;5009734;28;20296;-64
2023/12/05 10:48:18;;;;;;;20.25;9.60;;;;;;;-144.57;100.00;62443.72;5010827;28;20072;-63
2023/12/05 10:50:46;;;;;;;20.65;10.32;;;;;;;-144.57;100.00;62443.72;5010476;28;20045;-63
2023/12/05 10:53:14;;;;;;;19.90;10.30;;;;;;;-144.57;100.00;62443.72;5011055;28;20050;-62
2023/12/05 10:55:40;;;;;;;20.88;9.38;;;;;;;-144.57;100.00;62443.72;5011501;28;20042;-63